Time;durP1;ratioP1;P1;durP2;ratioP2;P2;SDS_P1;SDS_P2;PMS_P1;PMS_P2;Temp;Humidity;BMP_temperature;BMP_pressure;BME280_temperature;BME280_humidity;BME280_pressure;Samples;Min_cycle;Max_cycle;Signal;HPM_P1;HPM_P2
2022/10/18 00:01:24;;;;;;;;;5.20;3.00;;;;;16.38;79.01;100831.28;5095620;28;8900;-60
2022/10/18 00:03:51;;;;;;;;;6.00;6.00;;;;;16.37;79.16;100830.44;5096214;28;8903;-61
2022/10/18 00:06:19;;;;;;;;;4.80;4.00;;;;;16.38;78.78;100837.50;5094998;28;8825;-60
2022/10/18 00:08:47;;;;;;;;;6.00;4.80;;;;;16.38;78.96;100837.50;5095312;28;8826;-62
2022/10/18 00:11:14;;;;;;;;;6.20;5.20;;;;;16.38;78.73;100836.66;5095201;28;8838;-60
2022/10/18 00:13:43;;;;;;;;;7.20;5.80;;;;;16.39;78.97;100840.06;5098272;28;8810;-61
2022/10/18 00:16:11;;;;;;;;;4.00;4.00;;;;;16.40;79.12;100839.06;5099808;28;8849;-61
2022/10/18 00:18:38;;;;;;;;;2.20;1.40;;;;;16.42;78.71;100845.16;5099735;28;8814;-61
2022/10/18 00:21:06;;;;;;;;;5.60;5.60;;;;;16.44;78.55;100840.50;5099254;28;8894;-61
2022/10/18 00:23:34;;;;;;;;;4.00;4.00;;;;;16.45;78.56;100834.13;5099601;28;8830;-60
2022/10/18 00:26:01;;;;;;;;;2.20;2.20;;;;;16.46;78.61;100830.47;5099763;28;9516;-60
2022/10/18 00:28:29;;;;;;;;;3.40;3.40;;;;;16.49;78.81;100829.34;5099227;28;8799;-61
2022/10/18 00:30:57;;;;;;;;;4.40;4.00;;;;;16.49;78.63;100824.78;5099164;28;8818;-60
2022/10/18 00:33:24;;;;;;;;;2.80;2.80;;;;;16.50;78.51;100826.50;5099804;28;8834;-62
2022/10/18 00:35:52;;;;;;;;;4.00;4.00;;;;;16.51;78.96;100817.47;5099360;28;8826;-60
2022/10/18 00:38:20;;;;;;;;;2.20;2.20;;;;;16.52;78.42;100815.59;5099378;28;8822;-60
2022/10/18 00:40:48;;;;;;;;;3.00;3.00;;;;;16.52;78.49;100818.28;5099621;28;8834;-60
2022/10/18 00:43:16;;;;;;;;;1.00;1.00;;;;;16.52;78.35;100808.41;5099198;28;8810;-60
2022/10/18 00:45:43;;;;;;;;;3.40;3.40;;;;;16.52;78.70;100818.28;5099192;28;8838;-60
2022/10/18 00:48:11;;;;;;;;;4.40;4.00;;;;;16.52;78.86;100812.91;5099389;28;8837;-60
2022/10/18 00:50:39;;;;;;;;;6.40;5.60;;;;;16.52;78.68;100811.09;5099249;28;8830;-60
2022/10/18 00:53:07;;;;;;;;;4.00;3.60;;;;;16.53;78.96;100809.22;5099350;28;8908;-61
2022/10/18 00:55:34;;;;;;;;;4.80;3.60;;;;;16.52;78.39;100807.53;5099150;28;8825;-60
2022/10/18 00:58:02;;;;;;;;;4.00;4.00;;;;;16.51;78.86;100812.09;5098897;28;8822;-60
2022/10/18 01:00:30;;;;;;;;;6.00;4.00;;;;;16.52;78.58;100816.47;5098512;28;8834;-60
2022/10/18 01:02:58;;;;;;;;;4.40;4.40;;;;;16.52;78.31;100812.91;5098693;28;8875;-60
2022/10/18 01:05:25;;;;;;;;;5.20;4.40;;;;;16.52;78.92;100813.78;5099039;28;8834;-59
2022/10/18 01:07:53;;;;;;;;;3.40;3.00;;;;;16.52;78.87;100813.78;5099042;28;8841;-61
2022/10/18 01:10:21;;;;;;;;;3.00;3.00;;;;;16.52;78.54;100802.16;5098887;28;8830;-61
2022/10/18 01:12:48;;;;;;;;;5.20;4.00;;;;;16.52;78.97;100803.03;5099014;28;8830;-60
2022/10/18 01:15:16;;;;;;;;;4.40;4.40;;;;;16.53;78.51;100798.47;5098885;28;8822;-60
2022/10/18 01:17:44;;;;;;;;;3.40;3.40;;;;;16.52;78.73;100797.66;5098939;28;8841;-59
2022/10/18 01:20:12;;;;;;;;;6.60;6.00;;;;;16.51;78.87;100792.41;5098416;28;9595;-61
2022/10/18 01:22:39;;;;;;;;;5.20;4.00;;;;;16.52;78.52;100796.78;5098463;28;8834;-59
2022/10/18 01:25:07;;;;;;;;;6.20;5.60;;;;;16.51;78.67;100800.47;5097064;28;8849;-61
2022/10/18 01:27:34;;;;;;;;;5.20;5.20;;;;;16.49;78.63;100797.91;5098430;28;8845;-60
2022/10/18 01:30:02;;;;;;;;;7.00;6.00;;;;;16.51;78.87;100805.84;5098686;28;9519;-61
2022/10/18 01:32:30;;;;;;;;;5.20;5.00;;;;;16.49;78.46;100805.97;5098604;28;8822;-60
2022/10/18 01:34:57;;;;;;;;;6.60;6.60;;;;;16.49;78.93;100814.03;5098074;28;8826;-61
2022/10/18 01:37:25;;;;;;;;;4.00;3.60;;;;;16.48;78.56;100812.34;5098282;28;8922;-60
2022/10/18 01:39:53;;;;;;;;;6.00;4.00;;;;;16.48;78.93;100806.97;5098434;28;8892;-60
2022/10/18 01:42:21;;;;;;;;;5.60;5.60;;;;;16.46;79.18;100808.09;5098225;28;8813;-61
2022/10/18 01:44:48;;;;;;;;;9.00;6.40;;;;;16.45;79.18;100796.50;5098289;28;8822;-60
2022/10/18 01:47:16;;;;;;;;;6.40;4.00;;;;;16.44;79.28;100802.88;5098404;28;8834;-60
2022/10/18 01:49:43;;;;;;;;;5.60;3.60;;;;;16.44;79.15;100796.63;5098472;28;8826;-61
2022/10/18 01:52:11;;;;;;;;;6.00;5.60;;;;;16.44;79.19;100794.81;5098434;28;8814;-59
2022/10/18 01:54:39;;;;;;;;;3.80;3.80;;;;;16.43;78.51;100795.78;5098373;28;8834;-60
2022/10/18 01:57:07;;;;;;;;;6.00;4.00;;;;;16.43;78.74;100784.19;5096770;28;8850;-60
2022/10/18 01:59:35;;;;;;;;;5.60;4.00;;;;;16.41;78.81;100784.31;5097293;28;8930;-61
2022/10/18 02:02:03;;;;;;;;;3.80;3.80;;;;;16.41;79.16;100787.00;5097896;28;8818;-61
2022/10/18 02:04:30;;;;;;;;;3.00;3.00;;;;;16.41;79.17;100784.31;5098366;28;8806;-62
2022/10/18 02:06:58;;;;;;;;;3.00;3.00;;;;;16.42;79.12;100785.16;5097996;28;8891;-61
2022/10/18 02:09:26;;;;;;;;;3.00;3.00;;;;;16.43;79.00;100776.09;5098246;28;8822;-60
2022/10/18 02:11:53;;;;;;;;;4.00;4.00;;;;;16.42;78.79;100772.56;5098268;28;8919;-61
2022/10/18 02:14:22;;;;;;;;;4.00;4.00;;;;;16.43;79.39;100768.03;5098154;28;8814;-60
2022/10/18 02:16:49;;;;;;;;;5.20;4.00;;;;;16.43;78.75;100776.97;5097982;28;8826;-61
2022/10/18 02:19:17;;;;;;;;;6.20;6.20;;;;;16.42;79.25;100777.94;5098376;28;8911;-60
2022/10/18 02:21:45;;;;;;;;;2.20;2.20;;;;;16.40;78.80;100777.22;5097829;28;8846;-60
2022/10/18 02:24:13;;;;;;;;;4.00;4.00;;;;;16.36;79.19;100769.56;5097818;28;9577;-61
2022/10/18 02:26:41;;;;;;;;;4.40;4.00;;;;;16.34;79.36;100767.00;5097890;28;8858;-61
2022/10/18 02:29:08;;;;;;;;;4.00;3.00;;;;;16.34;79.33;100772.38;5097212;28;8879;-60
2022/10/18 02:31:36;;;;;;;;;4.80;4.40;;;;;16.34;79.21;100772.38;5098020;28;9546;-60
2022/10/18 02:34:04;;;;;;;;;4.00;4.00;;;;;16.34;79.04;100769.69;5097842;28;8894;-60
2022/10/18 02:36:31;;;;;;;;;4.00;4.00;;;;;16.33;79.15;100772.53;5097379;28;8825;-60
2022/10/18 02:38:59;;;;;;;;;3.20;3.20;;;;;16.31;78.99;100769.97;5097615;28;8830;-60
2022/10/18 02:41:26;;;;;;;;;1.00;1.00;;;;;16.29;79.37;100765.72;5097516;28;8834;-61
2022/10/18 02:43:54;;;;;;;;;3.00;3.00;;;;;16.28;79.57;100769.41;5097346;28;8818;-60
2022/10/18 02:46:22;;;;;;;;;3.20;3.20;;;;;16.26;79.26;100766.84;5097555;28;8893;-60
2022/10/18 02:48:50;;;;;;;;;6.40;5.60;;;;;16.26;79.44;100771.38;5097511;28;8836;-59
2022/10/18 02:51:17;;;;;;;;;4.00;4.00;;;;;16.26;79.27;100774.06;5097067;28;8954;-60
2022/10/18 02:53:45;;;;;;;;;6.00;4.00;;;;;16.26;79.38;100772.22;5097018;28;8842;-60
2022/10/18 02:56:13;;;;;;;;;3.60;3.00;;;;;16.27;79.91;100776.59;5097516;28;8834;-60
2022/10/18 02:58:40;;;;;;;;;3.00;3.00;;;;;16.28;79.38;100778.31;5096440;28;8834;-61
2022/10/18 03:01:08;;;;;;;;;4.60;4.20;;;;;16.28;79.19;100778.31;5096531;28;8881;-60
2022/10/18 03:03:36;;;;;;;;;2.60;2.20;;;;;16.28;79.90;100772.94;5096765;28;8867;-59
2022/10/18 03:06:05;;;;;;;;;3.00;2.60;;;;;16.29;79.25;100776.47;5096771;28;8911;-60
2022/10/18 03:08:33;;;;;;;;;3.60;3.60;;;;;16.27;79.12;100771.22;5097424;28;9483;-60
2022/10/18 03:11:00;;;;;;;;;5.20;4.00;;;;;16.28;79.51;100766.72;5096367;28;8806;-61
2022/10/18 03:13:28;;;;;;;;;3.40;3.40;;;;;16.27;79.77;100770.38;5096283;28;8834;-60
2022/10/18 03:16:01;;;;;;;;;3.60;3.60;;;;;16.27;79.73;100776.59;5096258;28;8830;-60
2022/10/18 03:18:28;;;;;;;;;4.00;4.00;;;;;16.27;79.65;100773.91;5095960;28;8923;-61
2022/10/18 03:20:56;;;;;;;;;4.00;4.00;;;;;16.26;79.50;100769.53;5096127;28;8818;-61
2022/10/18 03:23:24;;;;;;;;;4.80;3.40;;;;;16.25;79.62;100767.81;5096274;28;8822;-61
2022/10/18 03:25:51;;;;;;;;;3.20;3.00;;;;;16.25;79.75;100765.13;5096360;28;8834;-60
2022/10/18 03:28:19;;;;;;;;;1.80;1.80;;;;;16.26;79.58;100774.91;5095499;28;8810;-60
2022/10/18 03:30:47;;;;;;;;;4.20;3.60;;;;;16.26;79.38;100772.22;5096204;28;8814;-60
2022/10/18 03:33:15;;;;;;;;;3.40;3.40;;;;;16.26;79.46;100774.06;5096030;28;8834;-61
2022/10/18 03:35:42;;;;;;;;;4.40;3.40;;;;;16.26;79.57;100772.22;5096075;28;8826;-61
2022/10/18 03:38:10;;;;;;;;;5.20;4.40;;;;;16.27;79.79;100775.75;5095830;28;8842;-60
2022/10/18 03:40:37;;;;;;;;;2.60;2.60;;;;;16.27;79.24;100770.38;5095750;28;8826;-60
2022/10/18 03:43:05;;;;;;;;;3.40;3.40;;;;;16.26;78.90;100769.53;5095760;28;8802;-60
2022/10/18 03:45:34;;;;;;;;;4.00;4.00;;;;;16.26;79.22;100774.91;5095759;28;9565;-60
2022/10/18 03:48:02;;;;;;;;;3.40;3.00;;;;;16.25;79.67;100767.81;5094733;28;8834;-61
2022/10/18 03:50:29;;;;;;;;;3.20;2.60;;;;;16.24;79.51;100770.63;5095855;28;8833;-60
2022/10/18 03:52:57;;;;;;;;;6.00;5.60;;;;;16.23;79.21;100766.25;5096368;28;8901;-61
2022/10/18 03:55:25;;;;;;;;;5.60;4.80;;;;;16.22;79.19;100763.72;5096159;28;8822;-60
2022/10/18 03:57:53;;;;;;;;;4.40;4.00;;;;;16.20;79.67;100767.38;5095991;28;8802;-61
2022/10/18 04:00:21;;;;;;;;;0.00;0.00;;;;;16.19;79.48;100765.69;5095886;28;8826;-62
2022/10/18 04:02:49;;;;;;;;;2.60;2.60;;;;;16.18;79.49;100774.75;5095859;28;8818;-62
2022/10/18 04:05:23;;;;;;;;;4.00;4.00;;;;;16.17;79.59;100772.22;5095636;28;8818;-61
2022/10/18 04:07:50;;;;;;;;;3.00;3.00;;;;;16.16;79.51;100777.72;5095944;28;9539;-60
2022/10/18 04:10:18;;;;;;;;;3.40;3.40;;;;;16.15;79.49;100770.63;5095187;28;8899;-60
2022/10/18 04:12:46;;;;;;;;;3.00;3.00;;;;;16.16;79.75;100769.66;5095734;28;8830;-60
2022/10/18 04:15:14;;;;;;;;;4.40;4.00;;;;;16.14;79.95;100774.31;5095683;28;8846;-60
2022/10/18 04:17:42;;;;;;;;;3.00;3.00;;;;;16.15;79.61;100774.16;5096003;28;8895;-60
2022/10/18 04:20:09;;;;;;;;;4.00;4.00;;;;;16.15;79.45;100768.78;5095249;28;8921;-60
2022/10/18 04:22:37;;;;;;;;;6.60;5.20;;;;;16.15;79.11;100773.31;5095735;28;8922;-60
2022/10/18 04:25:05;;;;;;;;;5.60;4.00;;;;;16.15;79.69;100770.63;5095626;28;8818;-61
2022/10/18 04:27:32;;;;;;;;;4.00;4.00;;;;;16.14;80.04;100772.47;5095584;28;9560;-60
2022/10/18 04:30:01;;;;;;;;;4.00;4.00;;;;;16.13;79.95;100767.22;5095513;28;8836;-62
2022/10/18 04:32:28;;;;;;;;;4.00;4.00;;;;;16.13;79.54;100770.75;5095222;28;8818;-60
2022/10/18 04:34:57;;;;;;;;;6.00;4.00;;;;;16.13;79.55;100772.59;5095883;28;8959;-60
2022/10/18 04:37:24;;;;;;;;;4.80;3.40;;;;;16.13;79.49;100776.13;5095694;28;8837;-60
2022/10/18 04:39:52;;;;;;;;;4.80;4.40;;;;;16.14;79.52;100774.31;5095326;28;8834;-60
2022/10/18 04:42:20;;;;;;;;;6.20;4.80;;;;;16.15;79.71;100776.00;5094934;28;8822;-62
2022/10/18 04:44:47;;;;;;;;;6.40;6.00;;;;;16.17;79.70;100782.09;5094926;28;8826;-61
2022/10/18 04:47:15;;;;;;;;;2.60;1.00;;;;;16.17;79.42;100781.09;5095437;28;8842;-60
2022/10/18 04:49:43;;;;;;;;;3.00;3.00;;;;;16.17;79.82;100778.41;5095282;28;8891;-61
2022/10/18 04:52:10;;;;;;;;;6.80;5.20;;;;;16.17;79.40;100781.09;5095055;28;8802;-61
2022/10/18 04:54:38;;;;;;;;;3.20;3.20;;;;;16.17;80.05;100785.66;5095330;28;8838;-60
2022/10/18 04:57:07;;;;;;;;;7.40;6.40;;;;;16.19;79.15;100783.66;5095006;28;8814;-60
2022/10/18 04:59:36;;;;;;;;;3.20;3.20;;;;;16.20;79.72;100782.66;5096982;28;9525;-61
2022/10/18 05:02:03;;;;;;;;;5.60;3.80;;;;;16.21;79.46;100781.69;5099019;28;8815;-60
2022/10/18 05:04:31;;;;;;;;;3.60;3.20;;;;;16.22;79.19;100779.84;5098610;28;8822;-61
2022/10/18 05:06:58;;;;;;;;;4.00;4.00;;;;;16.23;79.81;100782.38;5098621;28;8810;-60
2022/10/18 05:09:26;;;;;;;;;9.00;6.20;;;;;16.23;79.55;100779.69;5098618;28;8818;-61
2022/10/18 05:11:54;;;;;;;;;3.00;3.00;;;;;16.23;79.82;100775.19;5098420;28;8818;-61
2022/10/18 05:14:22;;;;;;;;;5.20;4.00;;;;;16.25;79.63;100777.75;5097504;28;8910;-61
2022/10/18 05:16:49;;;;;;;;;6.80;6.80;;;;;16.23;79.25;100780.56;5097171;28;8865;-60
2022/10/18 05:19:17;;;;;;;;;3.00;3.00;;;;;16.23;79.57;100782.38;5097495;28;8834;-60
2022/10/18 05:21:45;;;;;;;;;6.80;5.60;;;;;16.23;79.79;100779.69;5097686;28;8826;-61
2022/10/18 05:24:12;;;;;;;;;4.00;4.00;;;;;16.23;79.70;100782.38;5097729;28;8830;-61
2022/10/18 05:26:40;;;;;;;;;3.00;3.00;;;;;16.23;79.18;100782.38;5096402;28;8826;-62
2022/10/18 05:29:07;;;;;;;;;6.00;6.00;;;;;16.25;79.43;100778.56;5097021;28;8903;-60
2022/10/18 05:31:35;;;;;;;;;0.60;0.60;;;;;16.25;79.77;100769.69;5096939;28;8834;-60
2022/10/18 05:34:03;;;;;;;;;5.60;3.00;;;;;16.26;79.53;100774.91;5096625;28;8814;-61
2022/10/18 05:36:31;;;;;;;;;4.00;4.00;;;;;16.26;79.43;100782.97;5096693;28;8822;-61
2022/10/18 05:38:58;;;;;;;;;3.20;3.00;;;;;16.26;79.33;100774.91;5096303;28;8854;-60
2022/10/18 05:41:31;;;;;;;;;6.00;4.80;;;;;16.28;79.25;100774.78;5095607;28;8867;-61
2022/10/18 05:43:58;;;;;;;;;4.00;4.00;;;;;16.28;79.83;100786.38;5096134;28;8918;-61
2022/10/18 05:46:26;;;;;;;;;3.00;3.00;;;;;16.30;79.52;100780.84;5095365;28;8822;-61
2022/10/18 05:48:54;;;;;;;;;4.60;4.20;;;;;16.29;79.28;100780.03;5096136;28;8857;-61
2022/10/18 05:51:22;;;;;;;;;3.60;3.20;;;;;16.31;79.41;100783.41;5095710;28;8834;-61
2022/10/18 05:53:50;;;;;;;;;5.60;5.60;;;;;16.30;79.83;100770.97;5095450;28;8830;-60
2022/10/18 05:56:17;;;;;;;;;3.40;3.40;;;;;16.31;79.85;100774.47;5094777;28;8841;-61
2022/10/18 05:58:45;;;;;;;;;6.60;6.40;;;;;16.30;79.47;100779.03;5094161;28;8826;-61
2022/10/18 06:01:13;;;;;;;;;7.40;6.40;;;;;16.31;79.83;100791.47;5093939;28;9534;-60
2022/10/18 06:03:40;;;;;;;;;3.20;2.20;;;;;16.31;79.90;100780.72;5094584;28;8842;-61
2022/10/18 06:06:08;;;;;;;;;4.00;4.00;;;;;16.28;79.26;100772.94;5095588;28;9515;-60
2022/10/18 06:08:36;;;;;;;;;7.40;7.00;;;;;16.28;79.26;100778.31;5096009;28;8856;-60
2022/10/18 06:11:04;;;;;;;;;6.60;6.20;;;;;16.28;80.02;100789.06;5095224;28;8826;-60
2022/10/18 06:13:32;;;;;;;;;4.20;3.60;;;;;16.26;79.96;100793.72;5095274;28;8826;-61
2022/10/18 06:16:00;;;;;;;;;4.40;4.40;;;;;16.25;79.66;100799.25;5095898;28;8842;-60
2022/10/18 06:18:28;;;;;;;;;9.20;7.00;;;;;16.25;79.47;100799.25;5095141;28;8849;-60
2022/10/18 06:20:56;;;;;;;;;2.60;2.20;;;;;16.25;79.81;100810.84;5093979;28;9491;-60
2022/10/18 06:23:25;;;;;;;;;6.00;6.00;;;;;16.24;79.43;100806.44;5093934;28;8899;-60
2022/10/18 06:25:53;;;;;;;;;6.00;5.20;;;;;16.25;79.77;100813.53;5095551;28;8845;-61
2022/10/18 06:28:21;;;;;;;;;5.20;4.00;;;;;16.27;79.96;100816.09;5095280;28;8916;-60
2022/10/18 06:30:48;;;;;;;;;5.80;4.40;;;;;16.28;79.87;100815.09;5095978;28;8854;-60
2022/10/18 06:33:16;;;;;;;;;3.80;3.80;;;;;16.29;79.27;100814.97;5095782;28;8842;-60
2022/10/18 06:35:44;;;;;;;;;3.20;3.00;;;;;16.32;79.58;100819.22;5096447;28;8925;-61
2022/10/18 06:38:12;;;;;;;;;4.00;3.00;;;;;16.33;79.60;100811.00;5096138;28;8848;-60
2022/10/18 06:40:39;;;;;;;;;4.80;4.40;;;;;16.35;79.47;100816.25;5096208;28;9504;-61
2022/10/18 06:43:07;;;;;;;;;4.40;4.40;;;;;16.35;79.18;100827.84;5096023;28;8833;-61
2022/10/18 06:45:47;;;;;;;;;6.40;6.00;;;;;16.36;79.36;100820.63;5095916;28;8902;-61
2022/10/18 06:48:15;;;;;;;;;4.40;4.00;;;;;16.36;79.75;100823.31;5095961;28;8895;-60
2022/10/18 06:50:43;;;;;;;;;5.20;4.00;;;;;16.35;79.40;100825.16;5095370;28;8845;-60
2022/10/18 06:53:11;;;;;;;;;4.40;4.00;;;;;16.34;79.72;100831.50;5094699;28;8914;-60
2022/10/18 06:55:38;;;;;;;;;6.20;6.00;;;;;16.34;79.58;100844.13;5094284;28;8845;-60
2022/10/18 06:58:06;;;;;;;;;5.60;5.60;;;;;16.34;79.61;100826.13;5094523;28;8834;-59
2022/10/18 07:00:34;;;;;;;;;6.40;6.00;;;;;16.34;79.76;100834.19;5094682;28;8842;-61
2022/10/18 07:03:02;;;;;;;;;4.80;4.80;;;;;16.34;79.82;100834.19;5095481;28;8968;-60
2022/10/18 07:05:30;;;;;;;;;7.00;7.00;;;;;16.35;79.56;100833.22;5095208;28;8826;-60
2022/10/18 07:08:02;;;;;;;;;3.40;3.40;;;;;16.34;79.79;100831.50;5095407;28;8834;-60
2022/10/18 07:10:30;;;;;;;;;1.80;1.00;;;;;16.34;80.07;100844.13;5095857;28;8907;-61
2022/10/18 07:12:58;;;;;;;;;5.60;4.40;;;;;16.32;79.41;100849.63;5095422;28;8858;-61
2022/10/18 07:15:46;;;;;;;;;3.40;3.40;;;;;16.32;79.58;100852.31;5095525;28;8835;-61
2022/10/18 07:18:14;;;;;;;;;6.40;6.20;;;;;16.32;80.00;100863.06;5094514;28;8849;-60
2022/10/18 07:20:42;;;;;;;;;9.20;8.80;;;;;16.33;79.29;100863.94;5094101;28;8854;-60
2022/10/18 07:23:10;;;;;;;;;6.20;6.00;;;;;16.33;80.21;100859.38;5094979;28;8822;-60
2022/10/18 07:25:38;;;;;;;;;5.60;4.00;;;;;16.35;80.07;100861.94;5094638;28;8853;-60
2022/10/18 07:28:06;;;;;;;;;3.20;3.20;;;;;16.36;79.44;100867.19;5094491;28;9508;-61
2022/10/18 07:30:34;;;;;;;;;9.80;9.40;;;;;16.37;79.60;100873.44;5093807;28;8838;-60
2022/10/18 07:33:01;;;;;;;;;9.20;7.80;;;;;16.38;79.96;100867.06;5093793;28;8930;-60
2022/10/18 07:35:29;;;;;;;;;11.00;9.20;;;;;16.39;79.88;100876.84;5094084;28;9815;-60
2022/10/18 07:37:57;;;;;;;;;6.60;5.80;;;;;16.40;79.81;100881.25;5093507;28;8814;-59
2022/10/18 07:40:25;;;;;;;;;11.40;11.20;;;;;16.41;79.40;100877.56;5093612;28;8865;-60
2022/10/18 07:42:53;;;;;;;;;10.80;10.00;;;;;16.43;79.32;100883.66;5092603;28;8840;-60
2022/10/18 07:45:21;;;;;;;;;11.20;10.00;;;;;16.43;79.59;100879.16;5091761;28;8810;-60
2022/10/18 07:47:49;;;;;;;;;10.40;9.00;;;;;16.43;79.79;100878.28;5092177;28;8857;-59
2022/10/18 07:50:17;;;;;;;;;14.20;12.60;;;;;16.43;79.13;100879.16;5091334;28;8810;-60
2022/10/18 07:52:44;;;;;;;;;9.80;9.00;;;;;16.44;79.49;100880.84;5091127;28;8830;-60
2022/10/18 07:55:12;;;;;;;;;14.40;11.40;;;;;16.45;79.29;100877.16;5091398;28;8842;-60
2022/10/18 07:57:40;;;;;;;;;15.60;14.60;;;;;16.46;79.76;100884.25;5092352;28;8842;-60
2022/10/18 08:00:08;;;;;;;;;15.00;10.60;;;;;16.48;79.90;100892.19;5093027;28;8852;-60
2022/10/18 08:02:36;;;;;;;;;12.80;10.80;;;;;16.48;79.93;100892.19;5093143;28;8839;-61
2022/10/18 08:05:03;;;;;;;;;15.20;13.00;;;;;16.48;79.71;100893.00;5092077;28;8830;-60
2022/10/18 08:07:32;;;;;;;;;13.80;13.40;;;;;16.49;79.53;100899.25;5092459;28;9523;-60
2022/10/18 08:10:02;;;;;;;;;17.20;14.60;;;;;16.50;78.98;100904.47;5092659;28;8818;-60
2022/10/18 08:12:30;;;;;;;;;19.80;16.40;;;;;16.50;79.93;100907.16;5092806;28;8817;-60
2022/10/18 08:14:58;;;;;;;;;11.60;10.40;;;;;16.50;79.59;100904.47;5092682;28;8870;-60
2022/10/18 08:17:26;;;;;;;;;17.40;14.40;;;;;16.51;79.50;100908.91;5091460;28;8923;-60
2022/10/18 08:19:53;;;;;;;;;16.40;15.20;;;;;16.53;79.56;100914.13;5091985;28;8849;-60
2022/10/18 08:22:39;;;;;;;;;19.20;17.20;;;;;16.55;79.27;100920.22;5092283;28;8830;-60
2022/10/18 08:25:07;;;;;;;;;15.60;15.00;;;;;16.57;79.62;100920.94;5093987;28;8834;-60
2022/10/18 08:27:35;;;;;;;;;17.60;15.00;;;;;16.59;79.51;100927.88;5091810;28;8922;-62
2022/10/18 08:30:03;;;;;;;;;16.40;15.40;;;;;16.61;79.10;100923.22;5093113;28;8965;-60
2022/10/18 08:32:31;;;;;;;;;21.60;18.40;;;;;16.64;79.15;100922.94;5093368;28;8833;-61
2022/10/18 08:34:59;;;;;;;;;16.20;12.40;;;;;16.68;79.61;100931.56;5096058;28;8842;-60
2022/10/18 08:37:32;;;;;;;;;21.80;18.40;;;;;16.73;79.32;100919.44;5097316;28;8848;-61
2022/10/18 08:40:00;;;;;;;;;21.20;16.00;;;;;16.76;79.04;100927.22;5097170;28;8814;-60
2022/10/18 08:42:28;;;;;;;;;15.60;15.20;;;;;16.82;78.77;100939.28;5097455;28;8940;-61
2022/10/18 08:44:56;;;;;;;;;15.60;11.60;;;;;16.85;78.93;100937.16;5097071;28;8852;-61
2022/10/18 08:47:24;;;;;;;;;21.40;19.80;;;;;16.87;78.81;100943.25;5095643;28;9858;-61
2022/10/18 08:49:52;;;;;;;;;21.40;18.40;;;;;16.91;78.66;100938.44;5095622;28;8834;-61
2022/10/18 08:52:21;;;;;;;;;21.20;18.60;;;;;16.92;78.44;100942.84;5095049;28;8826;-60
2022/10/18 08:54:48;;;;;;;;;24.20;19.00;;;;;16.94;78.63;100944.41;5095054;28;8834;-61
2022/10/18 08:57:16;;;;;;;;;18.80;14.40;;;;;16.95;78.60;100946.09;5095893;28;8861;-60
2022/10/18 08:59:45;;;;;;;;;16.00;15.00;;;;;16.97;78.58;100948.66;5095233;28;8821;-61
2022/10/18 09:02:13;;;;;;;;;19.20;17.20;;;;;16.97;78.46;100949.53;5095248;28;8815;-61
2022/10/18 09:04:40;;;;;;;;;20.60;18.80;;;;;16.96;78.43;100952.34;5094370;28;8838;-60
2022/10/18 09:07:08;;;;;;;;;22.80;21.80;;;;;16.96;79.11;100958.59;5094440;28;8822;-60
2022/10/18 09:09:36;;;;;;;;;14.40;14.20;;;;;16.94;78.54;100955.16;5094390;28;8989;-60
2022/10/18 09:12:04;;;;;;;;;15.00;15.00;;;;;16.95;78.96;100953.34;5094845;28;8826;-60
2022/10/18 09:14:32;;;;;;;;;19.80;17.20;;;;;16.95;79.24;100951.47;5095544;28;8833;-60
2022/10/18 09:17:00;;;;;;;;;17.60;14.60;;;;;16.96;78.89;100963.13;5095445;28;8823;-60
2022/10/18 09:19:28;;;;;;;;;15.40;15.00;;;;;16.94;78.95;100959.72;5095765;28;8814;-61
2022/10/18 09:21:56;;;;;;;;;15.00;10.80;;;;;16.93;78.84;100956.16;5096251;28;8844;-61
2022/10/18 09:24:24;;;;;;;;;15.00;13.20;;;;;16.93;78.90;100964.22;5096742;28;8822;-61
2022/10/18 09:26:52;;;;;;;;;17.20;15.80;;;;;16.93;78.63;100968.78;5097246;28;8850;-61
2022/10/18 09:29:20;;;;;;;;;18.40;17.00;;;;;16.92;78.89;100967.06;5096195;28;8822;-60
2022/10/18 09:31:48;;;;;;;;;23.60;19.60;;;;;16.94;79.24;100975.88;5094113;28;8826;-61
2022/10/18 09:34:15;;;;;;;;;21.80;18.00;;;;;16.95;78.94;100973.00;5111041;28;8839;-61
2022/10/18 09:36:44;;;;;;;;;21.00;19.00;;;;;16.98;78.90;100967.38;5113486;28;8832;-61
2022/10/18 09:39:12;;;;;;;;;20.40;18.80;;;;;16.99;79.00;100974.44;5095773;28;8881;-61
2022/10/18 09:41:40;;;;;;;;;19.20;19.00;;;;;17.01;78.87;100977.03;5094645;28;8834;-60
2022/10/18 09:44:08;;;;;;;;;15.00;13.80;;;;;17.02;78.75;100978.72;5095142;28;8862;-61
2022/10/18 09:46:36;;;;;;;;;21.20;16.00;;;;;17.03;78.59;100981.28;5094071;28;8845;-60
2022/10/18 09:49:04;;;;;;;;;18.40;16.20;;;;;17.02;78.78;100982.25;5094880;28;8922;-60
2022/10/18 09:51:32;;;;;;;;;21.60;18.40;;;;;17.03;78.95;100981.28;5095493;28;8853;-61
2022/10/18 09:54:00;;;;;;;;;28.20;24.00;;;;;17.05;79.21;100975.75;5095745;28;8842;-61
2022/10/18 09:56:28;;;;;;;;;28.60;22.00;;;;;17.05;78.92;100979.28;5095527;28;8833;-61
2022/10/18 09:58:56;;;;;;;;;21.40;19.80;;;;;17.06;78.73;100982.81;5095174;28;9618;-61
2022/10/18 10:01:24;;;;;;;;;24.40;21.20;;;;;17.09;78.68;100980.69;5094515;28;8826;-61
2022/10/18 10:03:52;;;;;;;;;28.80;26.20;;;;;17.14;78.69;100982.97;5094787;28;8865;-60
2022/10/18 10:06:20;;;;;;;;;36.25;33.00;;;;;17.19;78.83;100986.13;5096077;28;8923;-61
2022/10/18 10:08:48;;;;;;;;;32.60;24.60;;;;;17.25;78.92;100986.41;5095360;28;9531;-60
2022/10/18 10:11:16;;;;;;;;;36.00;28.20;;;;;17.30;78.63;100986.00;5095497;28;8854;-61
2022/10/18 10:13:43;;;;;;;;;23.00;18.60;;;;;17.36;78.16;100980.94;5095848;28;8920;-61
2022/10/18 10:16:12;;;;;;;;;35.80;33.60;;;;;17.43;78.20;100979.41;5095832;28;9028;-61
2022/10/18 10:18:40;;;;;;;;;26.60;20.80;;;;;17.49;78.18;100983.38;5095932;28;8853;-61
2022/10/18 10:21:08;;;;;;;;;20.60;20.60;;;;;17.51;78.10;100984.94;5094106;28;8895;-63
2022/10/18 10:23:36;;;;;;;;;30.00;25.80;;;;;17.52;78.11;100985.75;5094865;28;8830;-61
2022/10/18 10:26:04;;;;;;;;;27.60;22.40;;;;;17.50;77.98;100985.06;5094652;28;8927;-62
2022/10/18 10:28:32;;;;;;;;;23.20;20.60;;;;;17.47;78.10;100986.19;5094612;28;8822;-61
2022/10/18 10:31:00;;;;;;;;;36.60;26.20;;;;;17.45;78.49;100982.78;5093769;28;8842;-62
2022/10/18 10:33:28;;;;;;;;;38.80;27.40;;;;;17.43;78.06;100983.91;5093544;28;8857;-60
2022/10/18 10:35:56;;;;;;;;;22.60;20.80;;;;;17.43;78.58;100987.47;5093841;28;8856;-60
2022/10/18 10:38:24;;;;;;;;;24.20;20.20;;;;;17.47;78.37;100986.19;5093252;28;8968;-61
2022/10/18 10:40:52;;;;;;;;;35.20;31.00;;;;;17.54;77.96;100984.63;5093110;28;8849;-60
2022/10/18 10:43:20;;;;;;;;;40.40;29.60;;;;;17.62;78.10;100992.88;5093123;28;8830;-60
2022/10/18 10:46:06;;;;;;;;;36.80;27.00;;;;;17.65;78.22;100991.75;5093571;28;8826;-61
2022/10/18 10:48:34;;;;;;;;;31.80;24.60;;;;;17.66;77.78;100982.66;5094820;28;8834;-60
2022/10/18 10:51:03;;;;;;;;;30.40;24.60;;;;;17.66;77.97;100991.59;5095522;28;8834;-61
2022/10/18 10:53:30;;;;;;;;;30.00;24.00;;;;;17.64;77.99;101000.81;5095248;28;9547;-61
2022/10/18 10:55:58;;;;;;;;;26.60;24.20;;;;;17.63;78.12;100991.03;5095000;28;8806;-60
2022/10/18 10:58:26;;;;;;;;;30.60;27.00;;;;;17.62;78.47;100992.03;5094984;28;8838;-61
2022/10/18 11:00:54;;;;;;;;;34.20;32.60;;;;;17.63;78.59;100991.88;5094861;28;8856;-61
2022/10/18 11:03:22;;;;;;;;;19.80;16.80;;;;;17.64;77.88;100992.72;5093375;28;8858;-60
2022/10/18 11:05:56;;;;;;;;;26.00;23.40;;;;;17.67;78.23;100998.69;5093135;28;8830;-60
2022/10/18 11:08:24;;;;;;;;;23.40;19.60;;;;;17.71;78.20;100992.03;5093354;28;8838;-60
2022/10/18 11:10:52;;;;;;;;;21.40;19.80;;;;;17.77;77.61;100996.84;5093301;28;8810;-60
2022/10/18 11:13:22;;;;;;;;;24.20;18.60;;;;;17.87;77.48;100981.53;5093290;28;8902;-61
2022/10/18 11:15:50;;;;;;;;;26.60;19.80;;;;;18.06;77.14;100986.06;5092233;28;8830;-60
2022/10/18 11:18:18;;;;;;;;;25.80;21.20;;;;;18.29;76.32;100985.56;5092048;28;9540;-60
2022/10/18 11:20:46;;;;;;;;;24.80;22.80;;;;;18.48;75.98;100985.56;5112463;28;8832;-60
2022/10/18 11:23:14;;;;;;;;;26.80;24.40;;;;;18.59;76.27;100977.28;5106138;28;8826;-61
2022/10/18 11:25:44;;;;;;;;;25.40;24.20;;;;;18.59;76.20;100984.53;5091876;28;9127;-60
2022/10/18 11:28:12;;;;;;;;;29.40;27.00;;;;;18.57;75.94;100987.38;5092606;28;8846;-61
2022/10/18 11:30:39;;;;;;;;;29.20;24.80;;;;;18.53;76.17;100991.34;5093145;28;8826;-60